createdAt,value
2019-05-20T00:00:36.619Z,20.41
2019-05-20T00:03:09.598Z,19.76
2019-05-20T00:05:42.792Z,19.31
2019-05-20T00:08:15.808Z,18.93
2019-05-20T00:10:48.716Z,20.59
2019-05-20T00:13:21.692Z,23.09
2019-05-20T00:15:54.490Z,22.39
2019-05-20T00:18:27.358Z,21.21
2019-05-20T00:21:00.180Z,20.33
2019-05-20T00:23:33.110Z,19.72
2019-05-20T00:26:05.993Z,19.24
2019-05-20T00:28:38.856Z,18.90
2019-05-20T00:31:12.258Z,18.54
2019-05-20T00:33:45.143Z,20.75
2019-05-20T00:36:18.115Z,23.68
2019-05-20T00:39:08.850Z,23.05
2019-05-20T00:41:41.676Z,21.57
2019-05-20T00:44:14.623Z,20.65
2019-05-20T00:46:47.452Z,20.00
2019-05-20T00:49:20.367Z,19.51
2019-05-20T00:51:53.279Z,19.09
2019-05-20T00:54:26.074Z,18.73
2019-05-20T00:56:58.873Z,20.67
2019-05-20T00:59:31.785Z,23.60
2019-05-20T01:02:04.647Z,23.21
2019-05-20T01:04:37.645Z,21.82
2019-05-20T01:07:10.739Z,20.81
2019-05-20T01:09:43.519Z,20.12
2019-05-20T01:12:16.396Z,19.61
2019-05-20T01:14:49.223Z,19.18
2019-05-20T01:17:22.086Z,18.80
2019-05-20T01:19:54.920Z,20.92
2019-05-20T01:22:27.788Z,23.50
2019-05-20T01:25:01.707Z,22.67
2019-05-20T01:27:34.554Z,21.38
2019-05-20T01:30:07.681Z,20.48
2019-05-20T01:32:41.917Z,19.77
2019-05-20T01:35:16.214Z,19.30
2019-05-20T01:37:49.108Z,18.89
2019-05-20T01:40:21.984Z,20.71
2019-05-20T01:42:55.290Z,23.22
2019-05-20T01:45:28.107Z,22.40
2019-05-20T01:48:00.923Z,21.14
2019-05-20T01:50:33.775Z,20.20
2019-05-20T01:53:06.570Z,19.55
2019-05-20T01:55:39.424Z,19.06
2019-05-20T01:58:12.564Z,18.62
2019-05-20T02:00:45.446Z,20.56
2019-05-20T02:03:31.004Z,23.14
2019-05-20T02:05:52.998Z,22.22
2019-05-20T02:08:25.838Z,20.95
2019-05-20T02:10:58.723Z,19.89
2019-05-20T02:13:56.930Z,19.23
2019-05-20T02:16:29.789Z,18.69
2019-05-20T02:19:02.599Z,21.23
2019-05-20T02:21:35.669Z,21.82
2019-05-20T02:24:09.572Z,20.62
2019-05-20T02:26:42.498Z,19.66
2019-05-20T02:29:15.320Z,18.99
2019-05-20T02:31:48.372Z,18.47
2019-05-20T02:34:21.139Z,20.31
2019-05-20T02:36:53.967Z,23.16
2019-05-20T02:39:27.084Z,22.56
2019-05-20T02:41:59.938Z,21.19
2019-05-20T02:44:32.756Z,20.17
2019-05-20T02:47:06.686Z,19.51
2019-05-20T02:49:39.493Z,18.97
2019-05-20T02:52:12.359Z,18.56
2019-05-20T02:54:45.170Z,20.65
2019-05-20T02:57:18.024Z,23.45
2019-05-20T02:59:50.887Z,22.57
2019-05-20T03:02:23.704Z,21.16
2019-05-20T03:04:56.641Z,20.19
2019-05-20T03:07:29.445Z,19.49
2019-05-20T03:10:02.345Z,18.99
2019-05-20T03:12:36.299Z,18.56
2019-05-20T03:15:09.343Z,20.38
2019-05-20T03:17:42.141Z,23.25
2019-05-20T03:20:15.378Z,22.71
2019-05-20T03:22:48.612Z,21.23
2019-05-20T03:25:21.593Z,20.19
2019-05-20T03:27:54.424Z,19.45
2019-05-20T03:30:27.295Z,18.91
2019-05-20T03:33:00.101Z,18.48
2019-05-20T03:35:32.988Z,20.33
2019-05-20T03:38:05.831Z,23.05
2019-05-20T03:40:38.605Z,22.24
2019-05-20T03:43:11.511Z,20.98
2019-05-20T03:45:44.427Z,20.10
2019-05-20T03:48:17.230Z,19.45
2019-05-20T03:50:50.133Z,18.97
2019-05-20T03:53:23.390Z,18.63
2019-05-20T03:55:56.188Z,21.03
2019-05-20T03:58:29.086Z,23.60
2019-05-20T04:01:01.958Z,22.87
2019-05-20T04:03:34.868Z,21.54
2019-05-20T04:06:07.677Z,20.58
2019-05-20T04:08:40.613Z,19.95
2019-05-20T04:11:13.424Z,19.47
2019-05-20T04:13:46.260Z,19.06
2019-05-20T04:16:19.135Z,18.69
2019-05-20T04:18:54.275Z,20.82
2019-05-20T04:21:26.434Z,23.56
2019-05-20T04:24:01.420Z,22.95
2019-05-20T04:26:33.894Z,21.68
2019-05-20T04:29:06.804Z,20.83
2019-05-20T04:31:39.672Z,20.23
2019-05-20T04:34:12.494Z,19.75
2019-05-20T04:36:45.370Z,19.39
2019-05-20T04:39:18.197Z,19.14
2019-05-20T04:41:50.997Z,21.19
2019-05-20T04:44:23.926Z,23.33
2019-05-20T04:46:58.070Z,22.50
2019-05-20T04:49:31.096Z,21.43
2019-05-20T04:52:04.018Z,20.70
2019-05-20T04:54:36.861Z,20.27
2019-05-20T04:57:09.857Z,19.92
2019-05-20T04:59:42.654Z,19.65
2019-05-20T05:02:15.544Z,21.64
2019-05-20T05:04:48.368Z,23.39
2019-05-20T05:07:21.243Z,22.49
2019-05-20T05:09:54.111Z,21.62
2019-05-20T05:12:27.020Z,21.10
2019-05-20T05:14:59.798Z,20.78
2019-05-20T05:17:32.640Z,20.51
2019-05-20T05:20:05.892Z,20.34
2019-05-20T05:22:39.185Z,20.33
2019-05-20T05:25:13.275Z,23.23
2019-05-20T05:27:46.036Z,23.77
2019-05-20T05:30:18.992Z,22.81
2019-05-20T05:32:51.936Z,22.13
2019-05-20T05:35:24.856Z,21.74
2019-05-20T05:37:57.834Z,21.48
2019-05-20T05:40:32.422Z,21.33
2019-05-20T05:43:05.380Z,21.29
2019-05-20T05:45:39.251Z,23.90
2019-05-20T05:48:12.373Z,24.73
2019-05-20T05:50:45.217Z,23.87
2019-05-20T05:53:18.054Z,23.23
2019-05-20T05:55:50.888Z,22.78
2019-05-20T05:58:23.768Z,22.44
2019-05-20T06:00:56.638Z,22.19
2019-05-20T06:03:29.562Z,22.01
2019-05-20T06:06:12.280Z,21.85
2019-05-20T06:08:37.286Z,24.21
2019-05-20T06:11:10.075Z,25.03
2019-05-20T06:13:42.977Z,24.15
2019-05-20T06:16:15.853Z,23.49
2019-05-20T06:18:48.688Z,23.08
2019-05-20T06:21:21.466Z,22.75
2019-05-20T06:23:54.304Z,22.54
2019-05-20T06:26:27.067Z,22.36
2019-05-20T06:29:02.906Z,24.50
2019-05-20T06:31:34.446Z,25.19
2019-05-20T06:34:07.234Z,24.35
2019-05-20T06:36:44.484Z,23.68
2019-05-20T06:39:17.327Z,23.30
2019-05-20T06:41:50.132Z,23.05
2019-05-20T06:44:23.101Z,22.91
2019-05-20T06:46:56.046Z,22.77
2019-05-20T06:49:29.043Z,24.98
2019-05-20T06:52:01.951Z,25.80
2019-05-20T06:54:34.813Z,24.97
2019-05-20T06:57:07.722Z,24.42
2019-05-20T06:59:41.707Z,24.09
2019-05-20T07:02:14.546Z,23.93
2019-05-20T07:04:47.441Z,23.83
2019-05-20T07:07:21.453Z,23.73
2019-05-20T07:09:55.535Z,23.66
2019-05-20T07:12:40.511Z,23.58
2019-05-20T07:15:04.205Z,23.52
2019-05-20T07:17:38.592Z,23.47
2019-05-20T07:20:11.457Z,23.49
2019-05-20T07:22:55.152Z,23.43
2019-05-20T07:25:19.518Z,24.88
2019-05-20T07:27:52.450Z,26.89
2019-05-20T07:30:25.458Z,26.07
2019-05-20T07:32:58.311Z,25.31
2019-05-20T07:35:31.558Z,24.74
2019-05-20T07:38:04.658Z,24.35
2019-05-20T07:40:37.725Z,24.04
2019-05-20T07:43:10.528Z,23.79
2019-05-20T07:45:43.873Z,23.56
2019-05-20T07:48:17.673Z,24.60
2019-05-20T07:50:51.023Z,26.87
2019-05-20T07:53:24.408Z,26.07
2019-05-20T07:56:07.104Z,25.18
2019-05-20T07:58:43.419Z,24.59
2019-05-20T08:01:16.393Z,24.22
2019-05-20T08:03:49.178Z,23.85
2019-05-20T08:06:22.369Z,23.61
2019-05-20T08:08:55.321Z,23.37
2019-05-20T08:11:28.271Z,25.42
2019-05-20T08:14:01.065Z,26.28
2019-05-20T08:16:34.239Z,25.32
2019-05-20T08:19:07.293Z,24.62
2019-05-20T08:21:40.093Z,24.19
2019-05-20T08:24:12.968Z,24.26
2019-05-20T08:26:45.934Z,26.90
2019-05-20T08:29:18.720Z,26.48
2019-05-20T08:31:51.498Z,25.65
2019-05-20T08:34:24.349Z,25.08
2019-05-20T08:36:57.118Z,24.62
2019-05-20T08:39:29.936Z,24.26
2019-05-20T08:42:02.739Z,24.98
2019-05-20T08:44:35.717Z,26.68
2019-05-20T08:47:08.607Z,25.92
2019-05-20T08:49:41.598Z,25.07
2019-05-20T08:52:15.875Z,24.50
2019-05-20T08:54:48.734Z,24.11
2019-05-20T08:57:21.503Z,24.49
2019-05-20T08:59:54.388Z,26.69
2019-05-20T09:02:27.231Z,25.99
2019-05-20T09:05:00.084Z,25.15
2019-05-20T09:07:32.871Z,24.50
2019-05-20T09:10:06.189Z,24.08
2019-05-20T09:12:39.360Z,24.63
2019-05-20T09:15:12.747Z,26.75
2019-05-20T09:17:45.663Z,25.84
2019-05-20T09:20:19.586Z,24.98
2019-05-20T09:22:52.608Z,24.35
2019-05-20T09:25:32.917Z,24.34
2019-05-20T09:28:06.102Z,26.85
2019-05-20T09:30:39.647Z,26.11
2019-05-20T09:33:12.951Z,25.18
2019-05-20T09:35:45.845Z,24.48
2019-05-20T09:38:21.608Z,24.96
2019-05-20T09:40:54.532Z,26.65
2019-05-20T09:43:27.413Z,25.76
2019-05-20T09:46:07.823Z,24.98
2019-05-20T09:48:35.019Z,24.38
2019-05-20T09:51:08.208Z,25.58
2019-05-20T09:53:41.075Z,27.23
2019-05-20T09:56:13.966Z,26.21
2019-05-20T09:58:46.791Z,25.35
2019-05-20T10:01:19.673Z,24.69
2019-05-20T10:03:52.611Z,24.26
2019-05-20T10:06:26.367Z,26.62
2019-05-20T10:08:59.310Z,26.93
2019-05-20T10:11:32.443Z,25.86
2019-05-20T10:14:05.314Z,25.04
2019-05-20T10:16:38.086Z,24.48
2019-05-20T10:19:10.859Z,25.61
2019-05-20T10:21:43.826Z,27.45
2019-05-20T10:24:16.805Z,26.55
2019-05-20T10:26:49.744Z,25.56
2019-05-20T10:29:22.616Z,24.88
2019-05-20T10:31:55.459Z,25.13
2019-05-20T10:34:28.309Z,27.44
2019-05-20T10:37:01.204Z,26.70
2019-05-20T10:39:34.094Z,25.69
2019-05-20T10:42:06.869Z,25.01
2019-05-20T10:44:41.871Z,25.75
2019-05-20T10:47:14.166Z,28.02
2019-05-20T10:49:47.938Z,27.16
2019-05-20T10:52:20.774Z,26.20
2019-05-20T10:54:53.700Z,25.58
2019-05-20T10:57:26.576Z,25.22
2019-05-20T10:59:59.578Z,24.97
2019-05-20T11:02:32.441Z,26.99
2019-05-20T11:05:05.953Z,27.76
2019-05-20T11:07:38.801Z,26.70
2019-05-20T11:10:11.944Z,25.96
2019-05-20T11:12:44.809Z,25.36
2019-05-20T11:15:17.992Z,25.01
2019-05-20T11:17:51.008Z,24.71
2019-05-20T11:20:23.817Z,26.96
2019-05-20T11:22:58.887Z,26.81
2019-05-20T11:25:31.269Z,26.08
2019-05-20T11:28:04.047Z,25.50
2019-05-20T11:30:37.027Z,25.11
2019-05-20T11:33:09.875Z,24.86
2019-05-20T11:35:42.746Z,24.56
2019-05-20T11:38:16.494Z,24.34
2019-05-20T11:40:50.507Z,24.16
2019-05-20T11:43:23.303Z,23.98
2019-05-20T11:45:56.138Z,23.87
2019-05-20T11:48:29.268Z,26.11
2019-05-20T11:51:02.174Z,27.02
2019-05-20T11:53:35.151Z,26.27
2019-05-20T11:56:11.801Z,25.77
2019-05-20T11:58:42.817Z,25.42
2019-05-20T12:01:15.741Z,25.24
2019-05-20T12:03:48.608Z,25.08
2019-05-20T12:06:21.726Z,25.06
2019-05-20T12:08:54.595Z,25.06
2019-05-20T12:11:27.430Z,25.08
2019-05-20T12:14:00.270Z,25.11
2019-05-20T12:16:33.105Z,25.11
2019-05-20T12:19:05.961Z,25.08
2019-05-20T12:21:38.796Z,24.98
2019-05-20T12:24:11.627Z,24.98
2019-05-20T12:26:45.509Z,24.98
2019-05-20T12:29:18.429Z,25.07
2019-05-20T12:31:51.268Z,25.11
2019-05-20T12:34:24.114Z,25.14
2019-05-20T12:36:56.941Z,25.07
2019-05-20T12:39:29.888Z,24.98
2019-05-20T12:42:02.923Z,24.88
2019-05-20T12:44:35.849Z,24.81
2019-05-20T12:47:08.781Z,24.73
2019-05-20T12:49:41.654Z,24.70
2019-05-20T12:52:14.504Z,24.67
2019-05-20T12:55:04.123Z,24.49
2019-05-20T12:57:21.937Z,24.48
2019-05-20T12:59:54.845Z,24.46
2019-05-20T13:02:27.772Z,24.43
2019-05-20T13:05:00.745Z,24.39
2019-05-20T13:07:33.695Z,24.36
2019-05-20T13:10:26.639Z,24.35
2019-05-20T13:12:43.379Z,24.32
2019-05-20T13:15:16.652Z,24.26
2019-05-20T13:17:49.454Z,24.25
2019-05-20T13:20:23.093Z,24.25
2019-05-20T13:22:55.931Z,24.22
2019-05-20T13:25:28.770Z,24.19
2019-05-20T13:28:01.655Z,24.16
2019-05-20T13:46:54.679Z,32.17
2019-05-20T13:49:30.497Z,30.49
2019-05-20T13:52:09.663Z,29.28
2019-05-20T13:54:42.827Z,28.48
2019-05-20T13:57:15.803Z,27.92
2019-05-20T13:59:49.829Z,27.45
2019-05-20T14:02:24.095Z,26.92
2019-05-20T14:04:56.983Z,26.51
2019-05-20T14:07:29.906Z,25.96
2019-05-20T14:10:02.831Z,25.63
2019-05-20T14:12:36.719Z,25.42
2019-05-20T14:15:11.526Z,25.19
2019-05-20T14:17:44.906Z,25.00
2019-05-20T14:20:18.230Z,24.66
2019-05-20T14:22:51.594Z,24.42
2019-05-20T14:25:24.690Z,24.25
2019-05-20T14:27:57.700Z,24.12
2019-05-20T14:30:30.699Z,23.98
2019-05-20T14:33:03.869Z,23.90
2019-05-20T14:35:37.086Z,23.81
2019-05-20T14:38:11.661Z,23.70
2019-05-20T14:40:45.107Z,23.64
2019-05-20T14:43:17.982Z,23.58
2019-05-20T14:45:53.726Z,23.53
2019-05-20T14:48:26.692Z,23.47
2019-05-20T14:50:59.682Z,23.39
2019-05-20T14:53:32.957Z,23.33
2019-05-20T14:56:07.939Z,23.23
2019-05-20T14:58:41.170Z,23.15
2019-05-20T15:01:14.321Z,23.08
2019-05-20T15:03:47.453Z,22.97
2019-05-20T15:06:20.485Z,22.89
2019-05-20T15:08:53.599Z,22.82
2019-05-20T15:11:37.745Z,22.74
2019-05-20T15:14:01.036Z,22.68
2019-05-20T15:16:36.916Z,22.63
2019-05-20T15:19:10.127Z,22.54
2019-05-20T15:21:43.178Z,22.53
2019-05-20T15:24:16.512Z,22.50
2019-05-20T15:26:52.849Z,22.49
2019-05-20T15:29:28.323Z,22.47
2019-05-20T15:32:00.374Z,22.50
2019-05-20T15:34:33.273Z,22.50
2019-05-20T15:37:07.230Z,22.53
2019-05-20T15:39:40.108Z,22.50
2019-05-20T15:42:12.994Z,22.51
2019-05-20T15:44:46.212Z,22.50
2019-05-20T15:47:19.262Z,22.47
2019-05-20T15:49:52.246Z,22.42
2019-05-20T15:52:25.248Z,22.39
2019-05-20T15:54:58.211Z,22.34
2019-05-20T15:57:31.085Z,22.30
2019-05-20T16:00:04.022Z,22.30
2019-05-20T16:02:38.429Z,22.24
2019-05-20T16:05:11.405Z,22.24
2019-05-20T16:07:44.408Z,22.22
2019-05-20T16:10:17.270Z,22.19
2019-05-20T16:12:50.161Z,22.19
2019-05-20T16:15:23.100Z,22.17
2019-05-20T16:17:56.766Z,22.16
2019-05-20T16:20:29.809Z,22.16
2019-05-20T16:23:03.073Z,22.13
2019-05-20T16:25:36.155Z,22.16
2019-05-20T16:28:09.128Z,22.13
2019-05-20T16:30:43.007Z,22.15
2019-05-20T16:33:16.101Z,22.15
2019-05-20T16:35:49.217Z,22.11
2019-05-20T16:38:22.245Z,22.08
2019-05-20T16:40:55.319Z,22.06
2019-05-20T16:43:28.185Z,22.05
2019-05-20T16:46:01.037Z,22.05
2019-05-20T16:48:34.975Z,22.02
2019-05-20T16:51:07.908Z,22.01
2019-05-20T16:53:41.026Z,22.01
2019-05-20T16:56:14.049Z,22.03
2019-05-20T16:58:46.995Z,22.02
2019-05-20T17:01:19.940Z,22.03
2019-05-20T17:03:52.977Z,22.03
2019-05-20T17:06:27.630Z,22.01
2019-05-20T17:09:00.944Z,22.02
2019-05-20T17:11:35.789Z,22.01
2019-05-20T17:14:10.663Z,21.99
2019-05-20T17:16:43.733Z,21.98
2019-05-20T17:19:16.727Z,21.96
2019-05-20T17:21:49.715Z,21.91
2019-05-20T17:24:22.657Z,21.88
2019-05-20T17:26:55.716Z,21.88
2019-05-20T17:29:28.849Z,21.82
2019-05-20T17:32:01.882Z,21.79
2019-05-20T17:34:35.003Z,21.74
2019-05-20T17:37:09.248Z,21.75
2019-05-20T17:39:42.297Z,21.69
2019-05-20T17:42:15.451Z,21.64
2019-05-20T17:44:48.388Z,21.61
2019-05-20T17:47:21.493Z,21.58
2019-05-20T17:49:54.466Z,21.53
2019-05-20T17:52:27.379Z,21.50
2019-05-20T17:55:00.289Z,21.46
2019-05-20T17:57:33.425Z,21.41
2019-05-20T18:00:08.892Z,21.37
2019-05-20T18:02:42.702Z,21.33
2019-05-20T18:05:15.719Z,21.27
2019-05-20T18:07:48.719Z,21.21
2019-05-20T18:10:24.787Z,21.17
2019-05-20T18:12:57.704Z,21.14
2019-05-20T18:15:30.642Z,21.07
2019-05-20T18:18:03.495Z,21.05
2019-05-20T18:20:36.318Z,21.00
2019-05-20T18:23:09.238Z,20.96
2019-05-20T18:25:42.151Z,20.92
2019-05-20T18:28:15.129Z,20.83
2019-05-20T18:30:48.109Z,20.78
2019-05-20T18:33:21.071Z,20.70
2019-05-20T18:35:55.099Z,20.65
2019-05-20T18:38:28.135Z,20.59
2019-05-20T18:41:01.159Z,20.52
2019-05-20T18:43:34.181Z,20.44
2019-05-20T18:46:07.122Z,20.40
2019-05-20T18:48:40.032Z,20.34
2019-05-20T18:51:13.101Z,20.24
2019-05-20T18:53:46.107Z,20.17
2019-05-20T18:56:19.152Z,20.13
2019-05-20T18:58:52.215Z,20.06
2019-05-20T19:01:25.150Z,19.97
2019-05-20T19:03:58.215Z,19.92
2019-05-20T19:06:31.279Z,19.85
2019-05-20T19:09:05.169Z,19.77
2019-05-20T19:11:38.332Z,19.72
2019-05-20T19:14:11.256Z,19.66
2019-05-20T19:16:44.232Z,19.61
2019-05-20T19:19:17.079Z,19.52
2019-05-20T19:21:49.922Z,19.48
2019-05-20T19:24:22.830Z,19.42
2019-05-20T19:26:55.760Z,19.35
2019-05-20T19:29:28.671Z,19.30
2019-05-20T19:32:02.413Z,19.23
2019-05-20T19:34:35.493Z,19.18
2019-05-20T19:37:08.550Z,19.14
2019-05-20T19:39:41.475Z,19.06
2019-05-20T19:42:14.485Z,19.00
2019-05-20T19:44:47.356Z,18.94
2019-05-20T19:47:20.352Z,18.86
2019-05-20T19:49:53.347Z,18.75
2019-05-20T19:52:26.478Z,18.68
2019-05-20T19:54:59.395Z,21.20
2019-05-20T19:57:32.435Z,23.84
2019-05-20T20:00:06.383Z,22.89
2019-05-20T20:02:40.814Z,21.88
2019-05-20T20:05:13.647Z,21.19
2019-05-20T20:07:46.659Z,20.74
2019-05-20T20:10:20.078Z,20.41
2019-05-20T20:12:53.087Z,20.17
2019-05-20T20:15:26.030Z,19.92
2019-05-20T20:17:59.039Z,19.73
2019-05-20T20:20:33.311Z,19.54
2019-05-20T20:23:06.137Z,19.37
2019-05-20T20:25:39.182Z,19.21
2019-05-20T20:28:12.050Z,19.07
2019-05-20T20:30:44.987Z,18.91
2019-05-20T20:33:18.945Z,18.79
2019-05-20T20:35:52.351Z,18.63
2019-05-20T20:38:25.238Z,18.50
2019-05-20T20:40:58.092Z,18.36
2019-05-20T20:43:32.224Z,18.31
2019-05-20T20:46:05.317Z,21.14
2019-05-20T20:48:38.212Z,22.34
2019-05-20T20:51:11.182Z,21.38
2019-05-20T20:53:44.173Z,20.62
2019-05-20T20:56:25.367Z,20.13
2019-05-20T20:58:51.901Z,19.79
2019-05-20T21:01:24.813Z,19.54
2019-05-20T21:03:57.911Z,19.30
2019-05-20T21:06:30.793Z,19.07
2019-05-20T21:09:04.681Z,18.91
2019-05-20T21:11:37.748Z,18.69
2019-05-20T21:14:10.647Z,18.54
2019-05-20T21:16:43.560Z,18.38
2019-05-20T21:19:16.381Z,20.51
2019-05-20T21:21:49.269Z,23.70
2019-05-20T21:24:22.326Z,23.56
2019-05-20T21:26:55.122Z,22.27
2019-05-20T21:29:27.954Z,21.37
2019-05-20T21:32:00.869Z,20.79
2019-05-20T21:34:33.750Z,20.35
2019-05-20T21:37:06.623Z,20.03
2019-05-20T21:39:39.473Z,19.76
2019-05-20T21:42:12.504Z,19.48
2019-05-20T21:44:45.394Z,19.26
2019-05-20T21:47:18.362Z,19.00
2019-05-20T21:49:51.252Z,18.79
2019-05-20T21:52:24.223Z,18.58
2019-05-20T21:54:57.015Z,18.41
2019-05-20T21:57:29.931Z,20.51
2019-05-20T22:00:02.807Z,23.64
2019-05-20T22:02:37.210Z,23.02
2019-05-20T22:05:10.534Z,21.82
2019-05-20T22:07:43.395Z,20.89
2019-05-20T22:10:16.312Z,20.24
2019-05-20T22:12:49.180Z,19.79
2019-05-20T22:15:22.200Z,19.41
2019-05-20T22:17:55.291Z,19.07
2019-05-20T22:20:28.101Z,18.76
2019-05-20T22:23:22.821Z,18.51
2019-05-20T22:25:55.691Z,18.20
2019-05-20T22:28:28.763Z,19.31
2019-05-20T22:31:01.682Z,22.74
2019-05-20T22:33:41.314Z,22.75
2019-05-20T22:36:09.281Z,21.47
2019-05-20T22:38:42.188Z,20.51
2019-05-20T22:41:15.158Z,19.90
2019-05-20T22:43:48.341Z,19.45
2019-05-20T22:46:21.278Z,19.09
2019-05-20T22:48:54.207Z,18.78
2019-05-20T22:51:27.126Z,18.51
2019-05-20T22:54:00.105Z,18.23
2019-05-20T22:56:33.269Z,20.28
2019-05-20T22:59:06.149Z,23.21
2019-05-20T23:01:39.085Z,22.33
2019-05-20T23:04:12.091Z,21.02
2019-05-20T23:06:45.175Z,20.13
2019-05-20T23:09:18.016Z,19.52
2019-05-20T23:11:50.995Z,19.04
2019-05-20T23:14:23.988Z,18.66
2019-05-20T23:16:56.887Z,18.34
2019-05-20T23:19:29.789Z,18.03
2019-05-20T23:22:02.931Z,17.75
2019-05-20T23:24:36.053Z,20.12
2019-05-20T23:27:08.865Z,23.18
2019-05-20T23:29:41.756Z,22.37
2019-05-20T23:32:14.545Z,21.07
2019-05-20T23:34:47.402Z,20.14
2019-05-20T23:37:20.296Z,19.51
2019-05-20T23:39:53.246Z,19.06
2019-05-20T23:42:26.158Z,18.68
2019-05-20T23:44:58.937Z,18.36
2019-05-20T23:47:31.799Z,18.07
2019-05-20T23:50:04.803Z,17.77
2019-05-20T23:52:37.603Z,17.53
2019-05-20T23:55:11.049Z,19.93
2019-05-20T23:57:43.907Z,22.75
